createdAt,value
2018-07-31T00:01:10.176Z,0.00
2018-07-31T00:02:10.161Z,0.00
2018-07-31T00:04:03.115Z,0.00
2018-07-31T00:05:03.073Z,0.00
2018-07-31T00:06:56.460Z,0.00
2018-07-31T00:07:56.459Z,0.00
2018-07-31T00:09:49.846Z,0.00
2018-07-31T00:10:49.840Z,0.00
2018-07-31T00:12:42.694Z,0.00
2018-07-31T00:13:42.689Z,0.00
2018-07-31T00:15:36.057Z,0.00
2018-07-31T00:16:36.057Z,0.00
2018-07-31T00:18:29.365Z,0.00
2018-07-31T00:19:29.384Z,0.00
2018-07-31T00:21:22.775Z,0.00
2018-07-31T00:22:22.724Z,0.00
2018-07-31T00:24:16.089Z,0.00
2018-07-31T00:25:16.084Z,0.00
2018-07-31T00:27:09.451Z,0.00
2018-07-31T00:28:09.436Z,0.00
2018-07-31T00:30:02.799Z,0.00
2018-07-31T00:31:02.796Z,0.00
2018-07-31T00:32:55.694Z,0.00
2018-07-31T00:33:55.677Z,0.00
2018-07-31T00:35:49.092Z,0.00
2018-07-31T00:36:49.062Z,0.00
2018-07-31T00:38:41.943Z,0.00
2018-07-31T00:39:41.946Z,0.00
2018-07-31T00:41:34.844Z,0.00
2018-07-31T00:42:34.833Z,0.00
2018-07-31T00:44:28.192Z,0.00
2018-07-31T00:45:28.168Z,0.00
2018-07-31T00:47:21.518Z,0.00
2018-07-31T00:48:21.502Z,0.00
2018-07-31T00:50:14.837Z,0.00
2018-07-31T00:51:14.835Z,0.00
2018-07-31T00:53:07.748Z,0.00
2018-07-31T00:54:07.746Z,0.00
2018-07-31T00:55:07.719Z,0.00
2018-07-31T00:56:07.724Z,0.00
2018-07-31T00:57:07.726Z,0.00
2018-07-31T00:58:07.730Z,0.00
2018-07-31T00:59:07.736Z,0.00
2018-07-31T01:00:07.740Z,0.00
2018-07-31T01:01:07.747Z,0.00
2018-07-31T01:02:07.749Z,0.00
2018-07-31T01:03:07.754Z,0.00
2018-07-31T01:04:07.757Z,0.00
2018-07-31T01:05:07.767Z,0.00
2018-07-31T01:06:07.768Z,0.00
2018-07-31T01:07:07.770Z,0.00
2018-07-31T01:08:07.775Z,0.00
2018-07-31T01:09:07.779Z,0.00
2018-07-31T01:10:07.783Z,0.00
2018-07-31T01:11:07.795Z,0.00
2018-07-31T01:12:07.793Z,0.00
2018-07-31T01:13:07.800Z,0.00
2018-07-31T01:14:07.805Z,0.00
2018-07-31T01:15:07.804Z,0.00
2018-07-31T01:16:07.807Z,0.00
2018-07-31T01:17:07.814Z,0.00
2018-07-31T01:18:07.823Z,0.00
2018-07-31T01:19:07.822Z,0.00
2018-07-31T01:20:07.828Z,0.00
2018-07-31T01:21:07.831Z,0.00
2018-07-31T01:22:07.840Z,0.00
2018-07-31T01:23:07.898Z,0.00
2018-07-31T01:24:07.852Z,0.00
2018-07-31T01:25:07.900Z,0.00
2018-07-31T01:26:07.859Z,0.00
2018-07-31T01:27:07.855Z,0.00
2018-07-31T01:28:07.861Z,0.00
2018-07-31T01:29:07.861Z,0.00
2018-07-31T01:30:07.869Z,0.00
2018-07-31T01:31:07.874Z,0.00
2018-07-31T01:32:07.877Z,0.00
2018-07-31T01:33:07.879Z,0.00
2018-07-31T01:34:07.885Z,0.00
2018-07-31T01:35:07.911Z,0.00
2018-07-31T01:36:07.893Z,0.00
2018-07-31T01:37:07.901Z,0.00
2018-07-31T01:38:07.902Z,0.00
2018-07-31T01:39:07.908Z,0.00
2018-07-31T01:40:07.911Z,0.00
2018-07-31T01:41:07.917Z,0.00
2018-07-31T01:42:07.927Z,0.00
2018-07-31T01:43:07.922Z,0.00
2018-07-31T01:44:07.928Z,0.00
2018-07-31T01:45:07.934Z,0.00
2018-07-31T01:46:07.937Z,0.00
2018-07-31T01:47:07.941Z,0.00
2018-07-31T01:48:07.953Z,0.00
2018-07-31T01:49:07.949Z,0.00
2018-07-31T01:50:07.953Z,0.00
2018-07-31T01:51:07.957Z,0.00
2018-07-31T01:52:07.960Z,0.00
2018-07-31T01:53:07.972Z,0.00
2018-07-31T01:54:07.968Z,0.00
2018-07-31T01:55:07.976Z,0.00
2018-07-31T01:56:07.978Z,0.00
2018-07-31T01:57:07.993Z,0.00
2018-07-31T01:58:07.982Z,0.00
2018-07-31T01:59:07.987Z,0.00
2018-07-31T02:00:07.996Z,0.00
2018-07-31T02:01:08.005Z,0.00
2018-07-31T02:02:08.004Z,0.00
2018-07-31T02:03:08.013Z,0.00
2018-07-31T02:04:08.012Z,0.00
2018-07-31T02:05:08.014Z,0.00
2018-07-31T02:06:08.049Z,0.00
2018-07-31T02:07:08.050Z,0.00
2018-07-31T02:08:08.027Z,0.00
2018-07-31T02:09:08.029Z,0.00
2018-07-31T02:10:08.037Z,0.00
2018-07-31T02:11:08.038Z,0.00
2018-07-31T02:12:08.044Z,0.00
2018-07-31T02:13:08.046Z,0.00
2018-07-31T02:14:08.048Z,0.00
2018-07-31T02:15:08.062Z,0.00
2018-07-31T02:16:08.063Z,0.00
2018-07-31T02:17:08.075Z,0.00
2018-07-31T02:18:08.071Z,0.00
2018-07-31T02:19:08.072Z,0.00
2018-07-31T02:20:08.076Z,0.00
2018-07-31T02:21:08.093Z,0.00
2018-07-31T02:22:08.084Z,0.00
2018-07-31T02:23:08.091Z,0.00
2018-07-31T02:24:08.092Z,0.00
2018-07-31T02:25:08.094Z,0.00
2018-07-31T02:26:08.097Z,0.00
2018-07-31T02:27:08.103Z,0.00
2018-07-31T02:28:08.158Z,0.00
2018-07-31T02:29:08.151Z,0.00
2018-07-31T02:30:08.114Z,0.00
2018-07-31T02:31:08.163Z,0.00
2018-07-31T02:32:08.127Z,0.00
2018-07-31T02:33:08.128Z,0.00
2018-07-31T02:34:08.132Z,0.00
2018-07-31T02:35:08.134Z,0.00
2018-07-31T02:36:08.138Z,0.00
2018-07-31T02:37:08.143Z,0.00
2018-07-31T02:38:08.147Z,0.00
2018-07-31T02:39:08.149Z,0.00
2018-07-31T02:40:08.156Z,0.00
2018-07-31T02:41:08.157Z,0.00
2018-07-31T02:42:08.163Z,0.00
2018-07-31T02:43:08.179Z,0.00
2018-07-31T02:44:08.174Z,0.00
2018-07-31T02:45:08.175Z,0.00
2018-07-31T02:46:08.179Z,0.00
2018-07-31T02:47:08.182Z,0.00
2018-07-31T02:48:08.190Z,0.00
2018-07-31T02:49:08.189Z,0.00
2018-07-31T02:50:08.195Z,0.00
2018-07-31T02:51:08.199Z,0.00
2018-07-31T02:52:08.211Z,0.00
2018-07-31T02:53:08.206Z,0.00
2018-07-31T02:54:08.208Z,0.00
2018-07-31T02:55:08.229Z,0.00
2018-07-31T02:56:08.221Z,0.00
2018-07-31T02:57:08.222Z,0.00
2018-07-31T02:58:08.271Z,0.00
2018-07-31T02:59:08.252Z,0.00
2018-07-31T03:00:08.234Z,0.00
2018-07-31T03:01:08.238Z,0.00
2018-07-31T03:02:08.243Z,0.00
2018-07-31T03:03:08.246Z,0.00
2018-07-31T03:04:08.251Z,0.00
2018-07-31T03:05:08.257Z,0.00
2018-07-31T03:06:08.260Z,0.00
2018-07-31T03:07:08.263Z,0.00
2018-07-31T03:08:08.301Z,0.00
2018-07-31T03:09:08.269Z,0.00
2018-07-31T03:10:08.273Z,0.00
2018-07-31T03:11:08.279Z,0.00
2018-07-31T03:12:08.283Z,0.00
2018-07-31T03:13:08.289Z,4.00
2018-07-31T03:14:08.290Z,4.00
2018-07-31T03:15:08.294Z,0.00
2018-07-31T03:16:08.298Z,0.00
2018-07-31T03:17:08.301Z,4.00
2018-07-31T03:18:08.306Z,4.00
2018-07-31T03:19:08.309Z,4.00
2018-07-31T03:20:08.332Z,4.00
2018-07-31T03:21:08.317Z,4.00
2018-07-31T03:22:08.330Z,4.00
2018-07-31T03:23:08.334Z,4.00
2018-07-31T03:24:08.329Z,8.00
2018-07-31T03:25:08.330Z,8.00
2018-07-31T03:26:08.337Z,8.00
2018-07-31T03:27:08.356Z,12.00
2018-07-31T03:28:08.355Z,12.00
2018-07-31T03:29:08.347Z,12.00
2018-07-31T03:30:08.351Z,12.00
2018-07-31T03:31:08.375Z,12.00
2018-07-31T03:32:08.365Z,16.00
2018-07-31T03:33:08.380Z,16.00
2018-07-31T03:34:08.375Z,20.00
2018-07-31T03:35:08.371Z,24.00
2018-07-31T03:36:08.376Z,24.00
2018-07-31T03:37:08.380Z,28.00
2018-07-31T03:38:08.383Z,28.00
2018-07-31T03:39:08.389Z,32.00
2018-07-31T03:40:08.391Z,36.00
2018-07-31T03:41:08.395Z,40.00
2018-07-31T03:42:08.411Z,44.00
2018-07-31T03:43:08.407Z,44.00
2018-07-31T03:44:08.407Z,48.00
2018-07-31T03:45:08.413Z,56.00
2018-07-31T03:46:08.413Z,56.00
2018-07-31T03:47:08.418Z,60.00
2018-07-31T03:48:08.422Z,64.00
2018-07-31T03:49:08.432Z,72.00
2018-07-31T03:50:08.479Z,76.00
2018-07-31T03:51:08.435Z,80.00
2018-07-31T03:52:08.437Z,84.00
2018-07-31T03:53:08.440Z,92.00
2018-07-31T03:54:08.444Z,100.00
2018-07-31T03:55:08.447Z,104.00
2018-07-31T03:56:08.453Z,108.00
2018-07-31T03:57:08.459Z,116.00
2018-07-31T03:58:08.460Z,124.00
2018-07-31T03:59:08.463Z,128.00
2018-07-31T04:00:08.466Z,136.00
2018-07-31T04:01:08.468Z,140.00
2018-07-31T04:02:08.474Z,148.00
2018-07-31T04:03:08.476Z,156.00
2018-07-31T04:04:08.483Z,164.00
2018-07-31T04:05:08.485Z,172.00
2018-07-31T04:06:08.489Z,180.00
2018-07-31T04:07:08.492Z,188.00
2018-07-31T04:08:08.496Z,192.00
2018-07-31T04:09:08.500Z,200.00
2018-07-31T04:10:08.502Z,208.00
2018-07-31T04:11:08.510Z,216.00
2018-07-31T04:12:08.511Z,224.00
2018-07-31T04:13:08.516Z,232.00
2018-07-31T04:14:08.519Z,236.00
2018-07-31T04:15:08.523Z,244.00
2018-07-31T04:16:08.533Z,256.00
2018-07-31T04:17:08.534Z,260.00
2018-07-31T04:18:08.534Z,268.00
2018-07-31T04:19:08.541Z,272.00
2018-07-31T04:20:08.541Z,284.00
2018-07-31T04:21:08.545Z,292.00
2018-07-31T04:22:08.556Z,296.00
2018-07-31T04:23:08.552Z,304.00
2018-07-31T04:24:08.560Z,316.00
2018-07-31T04:25:08.560Z,320.00
2018-07-31T04:26:08.573Z,328.00
2018-07-31T04:27:08.566Z,336.00
2018-07-31T04:28:08.571Z,344.00
2018-07-31T04:29:08.575Z,348.00
2018-07-31T04:30:08.588Z,360.00
2018-07-31T04:31:08.581Z,368.00
2018-07-31T04:32:08.586Z,372.00
2018-07-31T04:33:08.591Z,380.00
2018-07-31T04:34:08.592Z,392.00
2018-07-31T04:35:08.597Z,396.00
2018-07-31T04:36:08.606Z,400.00
2018-07-31T04:37:08.602Z,412.00
2018-07-31T04:38:08.608Z,416.00
2018-07-31T04:39:08.613Z,424.00
2018-07-31T04:40:08.615Z,432.00
2018-07-31T04:41:08.631Z,436.00
2018-07-31T04:42:08.623Z,444.00
2018-07-31T04:43:08.626Z,456.00
2018-07-31T04:44:08.627Z,460.00
2018-07-31T04:45:08.642Z,468.00
2018-07-31T04:46:08.639Z,476.00
2018-07-31T04:47:08.643Z,480.00
2018-07-31T04:48:08.654Z,492.00
2018-07-31T04:49:08.658Z,496.00
2018-07-31T04:50:08.655Z,504.00
2018-07-31T04:51:08.659Z,512.00
2018-07-31T04:52:08.666Z,516.00
2018-07-31T04:53:08.673Z,524.00
2018-07-31T04:54:08.669Z,536.00
2018-07-31T04:55:08.681Z,544.00
2018-07-31T04:56:08.679Z,548.00
2018-07-31T04:57:08.685Z,556.00
2018-07-31T04:58:08.685Z,564.00
2018-07-31T04:59:08.691Z,572.00
2018-07-31T05:00:08.695Z,580.00
2018-07-31T05:01:08.698Z,588.00
2018-07-31T05:02:08.702Z,596.00
2018-07-31T05:03:08.706Z,600.00
2018-07-31T05:04:08.710Z,612.00
2018-07-31T05:05:08.713Z,620.00
2018-07-31T05:06:08.722Z,628.00
2018-07-31T05:07:08.722Z,636.00
2018-07-31T05:08:08.725Z,644.00
2018-07-31T05:09:08.732Z,652.00
2018-07-31T05:10:08.733Z,660.00
2018-07-31T05:11:08.793Z,668.00
2018-07-31T05:12:08.743Z,676.00
2018-07-31T05:13:08.745Z,684.00
2018-07-31T05:14:08.748Z,692.00
2018-07-31T05:15:08.754Z,700.00
2018-07-31T05:16:08.759Z,704.00
2018-07-31T05:17:08.762Z,716.00
2018-07-31T05:18:08.795Z,728.00
2018-07-31T05:19:08.770Z,732.00
2018-07-31T05:20:08.783Z,740.00
2018-07-31T05:21:08.784Z,748.00
2018-07-31T05:22:08.789Z,760.00
2018-07-31T05:23:08.788Z,764.00
2018-07-31T05:24:08.792Z,776.00
2018-07-31T05:25:08.798Z,784.00
2018-07-31T05:26:08.799Z,796.00
2018-07-31T05:27:08.808Z,804.00
2018-07-31T05:28:08.809Z,812.00
2018-07-31T05:29:08.815Z,828.00
2018-07-31T05:30:08.818Z,840.00
2018-07-31T05:31:08.825Z,852.00
2018-07-31T05:32:08.827Z,864.00
2018-07-31T05:33:08.830Z,880.00
2018-07-31T05:34:08.841Z,896.00
2018-07-31T05:35:08.840Z,908.00
2018-07-31T05:36:08.844Z,928.00
2018-07-31T05:37:08.848Z,940.00
2018-07-31T05:38:08.859Z,960.00
2018-07-31T05:39:08.857Z,972.00
2018-07-31T05:40:08.864Z,988.00
2018-07-31T05:41:08.868Z,1004.00
2018-07-31T05:42:08.869Z,1016.00
2018-07-31T05:43:08.875Z,1028.00
2018-07-31T05:44:08.885Z,1036.00
2018-07-31T05:45:08.884Z,1052.00
2018-07-31T05:46:08.895Z,1080.00
2018-07-31T05:47:08.896Z,1100.00
2018-07-31T05:48:08.899Z,1128.00
2018-07-31T05:49:08.903Z,1140.00
2018-07-31T05:50:08.908Z,1156.00
2018-07-31T05:51:08.913Z,1168.00
2018-07-31T05:52:08.923Z,1180.00
2018-07-31T05:53:08.921Z,1200.00
2018-07-31T05:54:08.927Z,1212.00
2018-07-31T05:55:08.934Z,1232.00
2018-07-31T05:56:08.937Z,1256.00
2018-07-31T05:57:08.942Z,1272.00
2018-07-31T05:58:08.948Z,1292.00
2018-07-31T05:59:08.953Z,1320.00
2018-07-31T06:00:08.959Z,1332.00
2018-07-31T06:01:08.959Z,1352.00
2018-07-31T06:02:08.967Z,1376.00
2018-07-31T06:03:08.982Z,1400.00
2018-07-31T06:04:08.978Z,1508.00
2018-07-31T06:05:08.985Z,1448.00
2018-07-31T06:06:08.988Z,1480.00
2018-07-31T06:07:08.994Z,1504.00
2018-07-31T06:08:08.999Z,1524.00
2018-07-31T06:09:09.004Z,1576.00
2018-07-31T06:10:09.009Z,1844.00
2018-07-31T06:11:09.019Z,2420.00
2018-07-31T06:12:09.022Z,2900.00
2018-07-31T06:13:09.032Z,3040.00
2018-07-31T06:14:09.031Z,3076.00
2018-07-31T06:15:09.089Z,3100.00
2018-07-31T06:16:09.041Z,3116.00
2018-07-31T06:17:09.046Z,3152.00
2018-07-31T06:18:09.052Z,3172.00
2018-07-31T06:19:09.061Z,3180.00
2018-07-31T06:20:09.068Z,3184.00
2018-07-31T06:21:09.068Z,3196.00
2018-07-31T06:22:09.076Z,3216.00
2018-07-31T06:23:09.081Z,3244.00
2018-07-31T06:24:09.089Z,3272.00
2018-07-31T06:25:09.094Z,3288.00
2018-07-31T06:26:09.100Z,3316.00
2018-07-31T06:27:09.108Z,3336.00
2018-07-31T06:28:09.111Z,3348.00
2018-07-31T06:29:09.134Z,3360.00
2018-07-31T06:30:09.128Z,3372.00
2018-07-31T06:31:09.134Z,3368.00
2018-07-31T06:32:09.141Z,3376.00
2018-07-31T06:33:09.158Z,3388.00
2018-07-31T06:34:09.155Z,3416.00
2018-07-31T06:35:09.163Z,3432.00
2018-07-31T06:36:09.167Z,3452.00
2018-07-31T06:37:09.185Z,3460.00
2018-07-31T06:38:09.185Z,3456.00
2018-07-31T06:39:09.201Z,3500.00
2018-07-31T06:40:09.199Z,3520.00
2018-07-31T06:41:09.210Z,3552.00
2018-07-31T06:42:09.228Z,3544.00
2018-07-31T06:43:09.224Z,3564.00
2018-07-31T06:44:09.236Z,3612.00
2018-07-31T06:45:09.242Z,3624.00
2018-07-31T06:46:09.252Z,3640.00
2018-07-31T06:47:09.261Z,3660.00
2018-07-31T06:48:09.273Z,3732.00
2018-07-31T06:49:09.328Z,3764.00
2018-07-31T06:50:09.288Z,3784.00
2018-07-31T06:51:09.299Z,3788.00
2018-07-31T06:52:09.307Z,3804.00
2018-07-31T06:53:09.320Z,3836.00
2018-07-31T06:54:09.329Z,3912.00
2018-07-31T06:55:09.340Z,3968.00
2018-07-31T06:56:09.350Z,4040.00
2018-07-31T06:57:09.358Z,4080.00
2018-07-31T06:58:09.381Z,4336.00
2018-07-31T06:59:09.380Z,4472.00
2018-07-31T07:00:09.390Z,4596.00
2018-07-31T07:01:09.399Z,4680.00
2018-07-31T07:02:09.463Z,4704.00
2018-07-31T07:03:09.419Z,4528.00
2018-07-31T07:04:09.430Z,4776.00
2018-07-31T07:05:09.441Z,4732.00
2018-07-31T07:06:09.452Z,4632.00
2018-07-31T07:07:09.465Z,4568.00
2018-07-31T07:08:09.477Z,5044.00
2018-07-31T07:09:09.531Z,5116.00
2018-07-31T07:10:09.502Z,5612.00
2018-07-31T07:11:09.511Z,5008.00
2018-07-31T07:12:09.524Z,4396.00
2018-07-31T07:13:09.533Z,4488.00
2018-07-31T07:14:09.546Z,3404.00
2018-07-31T07:15:09.558Z,4428.00
2018-07-31T07:16:09.573Z,3968.00
2018-07-31T07:17:09.582Z,5164.00
2018-07-31T07:18:09.594Z,3080.00
2018-07-31T07:19:09.619Z,3036.00
2018-07-31T07:20:09.619Z,3684.00
2018-07-31T07:21:09.631Z,3396.00
2018-07-31T07:22:09.644Z,2460.00
2018-07-31T07:23:09.655Z,5304.00
2018-07-31T07:24:09.668Z,3516.00
2018-07-31T07:25:09.680Z,2196.00
2018-07-31T07:26:09.695Z,2128.00
2018-07-31T07:27:09.703Z,2084.00
2018-07-31T07:28:09.717Z,2108.00
2018-07-31T07:29:09.732Z,2180.00
2018-07-31T07:30:09.741Z,2384.00
2018-07-31T07:31:09.750Z,2908.00
2018-07-31T07:32:09.764Z,2660.00
2018-07-31T07:33:09.777Z,2520.00
2018-07-31T07:34:09.785Z,2684.00
2018-07-31T07:35:09.795Z,3108.00
2018-07-31T07:36:09.806Z,3752.00
2018-07-31T07:37:09.816Z,6328.00
2018-07-31T07:38:09.827Z,5512.00
2018-07-31T07:39:09.838Z,6212.00
2018-07-31T07:40:09.877Z,6172.00
2018-07-31T07:41:09.862Z,6272.00
2018-07-31T07:42:09.874Z,6276.00
2018-07-31T07:43:09.885Z,6308.00
2018-07-31T07:44:09.894Z,6620.00
2018-07-31T07:45:09.905Z,6596.00
2018-07-31T07:46:09.915Z,6668.00
2018-07-31T07:47:09.929Z,6804.00
2018-07-31T07:48:09.940Z,6944.00
2018-07-31T07:49:09.953Z,7008.00
2018-07-31T07:50:09.963Z,7060.00
2018-07-31T07:51:09.979Z,7052.00
2018-07-31T07:52:09.991Z,7212.00
2018-07-31T07:53:10.005Z,7352.00
2018-07-31T07:54:10.055Z,7348.00
2018-07-31T07:55:10.029Z,7384.00
2018-07-31T07:56:10.047Z,7568.00
2018-07-31T07:57:10.057Z,7584.00
2018-07-31T07:58:10.071Z,7732.00
2018-07-31T07:59:10.086Z,7184.00
2018-07-31T08:00:10.103Z,7756.00
2018-07-31T08:01:10.113Z,7656.00
2018-07-31T08:02:10.126Z,7460.00
2018-07-31T08:03:10.141Z,6688.00
2018-07-31T08:04:10.262Z,5676.00
2018-07-31T08:05:10.173Z,5504.00
2018-07-31T08:06:10.187Z,6488.00
2018-07-31T08:07:10.201Z,7908.00
2018-07-31T08:08:10.238Z,7736.00
2018-07-31T08:09:10.232Z,8252.00
2018-07-31T08:10:10.246Z,8312.00
2018-07-31T08:11:10.262Z,8472.00
2018-07-31T08:12:10.277Z,8656.00
2018-07-31T08:13:10.293Z,8736.00
2018-07-31T08:14:10.309Z,8772.00
2018-07-31T08:15:10.325Z,8908.00
2018-07-31T08:16:10.337Z,8952.00
2018-07-31T08:17:10.356Z,8972.00
2018-07-31T08:18:10.371Z,8984.00
2018-07-31T08:19:10.385Z,9044.00
2018-07-31T08:20:10.403Z,8940.00
2018-07-31T08:21:10.420Z,5984.00
2018-07-31T08:22:10.436Z,2824.00
2018-07-31T08:23:10.453Z,2692.00
2018-07-31T08:24:10.467Z,2840.00
2018-07-31T08:25:10.485Z,9612.00
2018-07-31T08:26:10.505Z,9436.00
2018-07-31T08:27:10.531Z,9644.00
2018-07-31T08:39:35.989Z,11476.00
2018-07-31T08:40:35.984Z,11684.00
2018-07-31T08:42:29.355Z,11388.00
2018-07-31T08:43:29.348Z,12112.00
2018-07-31T08:45:22.263Z,4744.00
2018-07-31T08:46:22.258Z,4260.00
2018-07-31T08:47:22.278Z,3604.00
2018-07-31T08:48:22.292Z,2984.00
2018-07-31T08:49:22.304Z,2632.00
2018-07-31T08:50:22.317Z,2540.00
2018-07-31T08:51:22.336Z,2536.00
2018-07-31T08:52:22.347Z,2668.00
2018-07-31T08:53:22.360Z,10732.00
2018-07-31T08:54:22.375Z,10200.00
2018-07-31T08:55:22.389Z,2276.00
2018-07-31T08:56:22.402Z,2288.00
2018-07-31T08:57:22.416Z,2420.00
2018-07-31T08:58:22.431Z,2608.00
2018-07-31T08:59:22.447Z,2772.00
2018-07-31T09:00:22.458Z,2636.00
2018-07-31T09:01:22.473Z,2744.00
2018-07-31T09:02:22.485Z,2856.00
2018-07-31T09:03:22.507Z,2908.00
2018-07-31T09:04:22.513Z,2824.00
2018-07-31T09:05:22.525Z,2856.00
2018-07-31T09:06:22.536Z,2944.00
2018-07-31T09:07:22.551Z,10768.00
2018-07-31T09:08:22.629Z,2736.00
2018-07-31T09:09:22.578Z,2608.00
2018-07-31T09:10:22.593Z,2552.00
2018-07-31T09:11:22.600Z,2532.00
2018-07-31T09:12:22.612Z,2516.00
2018-07-31T09:13:22.624Z,2512.00
2018-07-31T09:14:22.638Z,2688.00
2018-07-31T09:15:22.663Z,5220.00
2018-07-31T09:16:22.659Z,12336.00
2018-07-31T09:17:22.708Z,12116.00
2018-07-31T09:18:22.683Z,11800.00
2018-07-31T09:19:22.701Z,11268.00
2018-07-31T09:20:22.706Z,10764.00
2018-07-31T09:21:22.718Z,9860.00
2018-07-31T09:22:22.772Z,5516.00
2018-07-31T09:23:22.741Z,8080.00
2018-07-31T09:24:22.764Z,3800.00
2018-07-31T09:25:22.768Z,6156.00
2018-07-31T09:26:22.793Z,3264.00
2018-07-31T09:27:22.797Z,5208.00
2018-07-31T09:28:22.806Z,4920.00
2018-07-31T09:29:22.823Z,1976.00
2018-07-31T09:30:22.861Z,4068.00
2018-07-31T09:31:22.844Z,2492.00
2018-07-31T09:32:22.854Z,2524.00
2018-07-31T09:33:22.878Z,2428.00
2018-07-31T09:34:22.884Z,3872.00
2018-07-31T09:35:22.896Z,3648.00
2018-07-31T09:36:22.918Z,2580.00
2018-07-31T09:37:22.921Z,2580.00
2018-07-31T09:38:22.933Z,2716.00
2018-07-31T09:39:22.943Z,2888.00
2018-07-31T09:40:23.084Z,2956.00
2018-07-31T09:41:22.968Z,4216.00
2018-07-31T09:42:22.994Z,4408.00
2018-07-31T09:43:22.996Z,4408.00
2018-07-31T09:44:23.008Z,4408.00
2018-07-31T09:45:23.020Z,4352.00
2018-07-31T09:46:23.032Z,4264.00
2018-07-31T09:47:23.050Z,4204.00
2018-07-31T09:48:23.057Z,4084.00
2018-07-31T09:49:23.069Z,4036.00
2018-07-31T09:50:23.086Z,4120.00
2018-07-31T09:51:23.094Z,4220.00
2018-07-31T09:52:23.108Z,4208.00
2018-07-31T09:53:23.121Z,4216.00
2018-07-31T09:54:23.134Z,4180.00
2018-07-31T09:55:23.145Z,4192.00
2018-07-31T09:56:23.158Z,4168.00
2018-07-31T09:57:23.172Z,4192.00
2018-07-31T09:58:23.183Z,4184.00
2018-07-31T09:59:23.195Z,4164.00
2018-07-31T10:00:23.212Z,4168.00
2018-07-31T10:01:23.220Z,4128.00
2018-07-31T10:02:23.235Z,4040.00
2018-07-31T10:03:23.259Z,3960.00
2018-07-31T10:04:23.264Z,3932.00
2018-07-31T10:05:23.326Z,3912.00
2018-07-31T10:06:23.282Z,3968.00
2018-07-31T10:07:23.303Z,3992.00
2018-07-31T10:08:23.308Z,3980.00
2018-07-31T10:09:23.325Z,4008.00
2018-07-31T10:10:23.332Z,3980.00
2018-07-31T10:11:23.348Z,3968.00
2018-07-31T10:12:23.364Z,3968.00
2018-07-31T10:13:23.374Z,3908.00
2018-07-31T10:14:23.386Z,3644.00
2018-07-31T10:15:23.403Z,2440.00
2018-07-31T10:16:23.411Z,2648.00
2018-07-31T10:17:23.425Z,4204.00
2018-07-31T10:18:23.440Z,4004.00
2018-07-31T10:19:23.450Z,2480.00
2018-07-31T10:20:23.463Z,3960.00
2018-07-31T10:21:23.476Z,3868.00
2018-07-31T10:22:23.490Z,2408.00
2018-07-31T10:23:23.507Z,2564.00
2018-07-31T10:24:23.519Z,3832.00
2018-07-31T10:25:23.528Z,3656.00
2018-07-31T10:26:23.540Z,3724.00
2018-07-31T10:27:23.553Z,3024.00
2018-07-31T10:28:23.573Z,3884.00
2018-07-31T10:29:23.579Z,3960.00
2018-07-31T10:30:23.591Z,3888.00
2018-07-31T10:31:23.604Z,3728.00
2018-07-31T10:32:23.626Z,2792.00
2018-07-31T10:33:23.628Z,3448.00
2018-07-31T10:34:23.638Z,3440.00
2018-07-31T10:35:23.656Z,3364.00
2018-07-31T10:36:23.664Z,1980.00
2018-07-31T10:37:23.721Z,3172.00
2018-07-31T10:38:23.704Z,3140.00
2018-07-31T10:39:23.706Z,3252.00
2018-07-31T10:40:23.720Z,3404.00
2018-07-31T10:41:23.726Z,3628.00
2018-07-31T10:42:23.742Z,3808.00
2018-07-31T10:43:23.757Z,3984.00
2018-07-31T10:44:23.771Z,4128.00
2018-07-31T10:45:23.787Z,4216.00
2018-07-31T10:46:23.795Z,4192.00
2018-07-31T10:47:23.807Z,4204.00
2018-07-31T10:48:23.819Z,4268.00
2018-07-31T10:49:23.837Z,4252.00
2018-07-31T10:50:23.845Z,4244.00
2018-07-31T10:51:23.923Z,4244.00
2018-07-31T10:52:23.872Z,4252.00
2018-07-31T10:53:23.886Z,4192.00
2018-07-31T10:54:23.895Z,4196.00
2018-07-31T10:55:23.913Z,4208.00
2018-07-31T10:56:23.924Z,4128.00
2018-07-31T10:57:23.939Z,3928.00
2018-07-31T10:58:23.989Z,3636.00
2018-07-31T10:59:23.965Z,3916.00
2018-07-31T11:00:24.020Z,3992.00
2018-07-31T11:01:24.057Z,3532.00
2018-07-31T11:02:24.009Z,2492.00
2018-07-31T11:03:24.020Z,2528.00
2018-07-31T11:04:24.063Z,2520.00
2018-07-31T11:05:24.047Z,2484.00
2018-07-31T11:06:24.141Z,2524.00
2018-07-31T11:07:24.073Z,2612.00
2018-07-31T11:08:24.084Z,2712.00
2018-07-31T11:09:24.102Z,2928.00
2018-07-31T11:10:24.127Z,2728.00
2018-07-31T11:11:24.132Z,2716.00
2018-07-31T11:12:24.135Z,3388.00
2018-07-31T11:13:24.151Z,3920.00
2018-07-31T11:14:24.160Z,3872.00
2018-07-31T11:15:24.180Z,3804.00
2018-07-31T11:16:24.188Z,3708.00
2018-07-31T11:17:24.200Z,3588.00
2018-07-31T11:18:24.215Z,3512.00
2018-07-31T11:19:24.228Z,3488.00
2018-07-31T11:20:24.239Z,3472.00
2018-07-31T11:21:24.252Z,3420.00
2018-07-31T11:22:24.280Z,3488.00
2018-07-31T11:23:24.278Z,3516.00
2018-07-31T11:24:24.289Z,3460.00
2018-07-31T11:25:24.300Z,3400.00
2018-07-31T11:26:24.318Z,3404.00
2018-07-31T11:27:24.371Z,3408.00
2018-07-31T11:28:24.355Z,3364.00
2018-07-31T11:29:24.352Z,3388.00
2018-07-31T11:30:24.362Z,3456.00
2018-07-31T11:31:24.383Z,3508.00
2018-07-31T11:32:24.388Z,2244.00
2018-07-31T11:33:24.405Z,2224.00
2018-07-31T11:34:24.411Z,2240.00
2018-07-31T11:35:24.425Z,2300.00
2018-07-31T11:36:24.438Z,3364.00
2018-07-31T11:37:24.451Z,3332.00
2018-07-31T11:38:24.508Z,3336.00
2018-07-31T11:39:24.500Z,3328.00
2018-07-31T11:40:24.490Z,3316.00
2018-07-31T11:41:24.504Z,3360.00
2018-07-31T11:42:24.513Z,3344.00
2018-07-31T11:43:24.526Z,3336.00
2018-07-31T11:44:24.543Z,3260.00
2018-07-31T11:45:24.553Z,3236.00
2018-07-31T11:46:24.565Z,2156.00
2018-07-31T11:47:24.578Z,2224.00
2018-07-31T11:48:24.589Z,3060.00
2018-07-31T11:49:24.608Z,3320.00
2018-07-31T11:50:24.616Z,3316.00
2018-07-31T11:51:24.629Z,3300.00
2018-07-31T11:52:24.645Z,3304.00
2018-07-31T11:53:24.664Z,3308.00
2018-07-31T11:54:24.669Z,3344.00
2018-07-31T11:55:24.677Z,3328.00
2018-07-31T11:56:24.692Z,3276.00
2018-07-31T11:57:24.705Z,3192.00
2018-07-31T11:58:24.717Z,3152.00
2018-07-31T11:59:24.730Z,3136.00
2018-07-31T12:00:24.743Z,3144.00
2018-07-31T12:01:24.761Z,3168.00
2018-07-31T12:02:24.768Z,3148.00
2018-07-31T12:03:24.781Z,3112.00
2018-07-31T12:04:24.794Z,3056.00
2018-07-31T12:05:24.807Z,2996.00
2018-07-31T12:06:24.820Z,2872.00
2018-07-31T12:07:24.835Z,1776.00
2018-07-31T12:08:24.844Z,1752.00
2018-07-31T12:09:24.864Z,1772.00
2018-07-31T12:10:24.872Z,1748.00
2018-07-31T12:11:24.931Z,1752.00
2018-07-31T12:12:24.898Z,1840.00
2018-07-31T12:13:24.913Z,2428.00
2018-07-31T12:14:24.924Z,3028.00
2018-07-31T12:15:24.935Z,3076.00
2018-07-31T12:16:24.948Z,3076.00
2018-07-31T12:17:24.966Z,3036.00
2018-07-31T12:18:24.972Z,2904.00
2018-07-31T12:19:24.990Z,3004.00
2018-07-31T12:20:25.000Z,2992.00
2018-07-31T12:21:25.013Z,3036.00
2018-07-31T12:22:25.025Z,3048.00
2018-07-31T12:23:25.041Z,2056.00
2018-07-31T12:24:25.046Z,2040.00
2018-07-31T12:25:25.065Z,1968.00
2018-07-31T12:26:25.074Z,1908.00
2018-07-31T12:27:25.090Z,1964.00
2018-07-31T12:28:25.105Z,2820.00
2018-07-31T12:29:25.110Z,2824.00
2018-07-31T12:30:25.125Z,2796.00
2018-07-31T12:31:25.137Z,2736.00
2018-07-31T12:32:25.151Z,2712.00
2018-07-31T12:33:25.162Z,2696.00
2018-07-31T12:34:25.174Z,2680.00
2018-07-31T12:35:25.187Z,2668.00
2018-07-31T12:36:25.203Z,2656.00
2018-07-31T12:37:25.212Z,2636.00
2018-07-31T12:38:25.272Z,2312.00
2018-07-31T12:39:25.254Z,2004.00
2018-07-31T12:40:25.252Z,2456.00
2018-07-31T12:41:25.261Z,2440.00
2018-07-31T12:42:25.276Z,2448.00
2018-07-31T12:43:25.302Z,2420.00
2018-07-31T12:44:25.300Z,2428.00
2018-07-31T12:45:25.311Z,2488.00
2018-07-31T12:46:25.327Z,2452.00
2018-07-31T12:47:25.337Z,2464.00
2018-07-31T12:48:25.349Z,2484.00
2018-07-31T12:49:25.394Z,2480.00
2018-07-31T12:50:25.377Z,2480.00
2018-07-31T12:51:25.389Z,2468.00
2018-07-31T12:52:25.401Z,2412.00
2018-07-31T12:53:25.415Z,2452.00
2018-07-31T12:54:25.431Z,2460.00
2018-07-31T12:55:25.439Z,2468.00
2018-07-31T12:56:25.456Z,2488.00
2018-07-31T12:57:25.463Z,2536.00